createdAt,value
2018-03-01T00:00:23.707Z,-6.31
2018-03-01T00:00:49.815Z,-6.29
2018-03-01T00:01:15.912Z,-6.29
2018-03-01T00:01:42.016Z,-6.28
2018-03-01T00:02:08.108Z,-6.26
2018-03-01T00:02:34.204Z,-6.29
2018-03-01T00:03:00.299Z,-6.31
2018-03-01T00:03:26.412Z,-6.31
2018-03-01T00:03:52.507Z,-6.31
2018-03-01T00:04:18.601Z,-6.24
2018-03-01T00:04:44.712Z,-6.23
2018-03-01T00:05:10.836Z,-6.21
2018-03-01T00:05:36.948Z,-6.28
2018-03-01T00:06:03.044Z,-6.21
2018-03-01T00:06:29.139Z,-6.17
2018-03-01T00:06:55.241Z,-6.18
2018-03-01T00:07:21.336Z,-6.24
2018-03-01T00:07:47.438Z,-6.18
2018-03-01T00:08:13.536Z,-6.18
2018-03-01T00:08:39.628Z,-6.2
2018-03-01T00:09:05.728Z,-6.29
2018-03-01T00:09:31.820Z,-6.29
2018-03-01T00:09:57.927Z,-6.28
2018-03-01T00:10:24.015Z,-6.21
2018-03-01T00:10:50.109Z,-6.34
2018-03-01T00:11:16.208Z,-6.31
2018-03-01T00:11:42.309Z,-6.21
2018-03-01T00:12:08.403Z,-6.18
2018-03-01T00:12:34.518Z,-6.21
2018-03-01T00:13:00.616Z,-6.29
2018-03-01T00:13:26.715Z,-6.26
2018-03-01T00:13:52.809Z,-6.26
2018-03-01T00:14:18.903Z,-6.24
2018-03-01T00:14:45.001Z,-6.23
2018-03-01T00:15:11.098Z,-6.26
2018-03-01T00:15:37.215Z,-6.35
2018-03-01T00:16:03.309Z,-6.34
2018-03-01T00:16:29.411Z,-6.32
2018-03-01T00:16:55.516Z,-6.36
2018-03-01T00:17:21.612Z,-6.26
2018-03-01T00:17:47.707Z,-6.35
2018-03-01T00:18:13.803Z,-6.28
2018-03-01T00:18:39.922Z,-6.34
2018-03-01T00:19:06.022Z,-6.26
2018-03-01T00:19:32.128Z,-6.29
2018-03-01T00:19:58.219Z,-6.2
2018-03-01T00:20:24.322Z,-6.18
2018-03-01T00:20:50.420Z,-6.21
2018-03-01T00:21:16.516Z,-6.23
2018-03-01T00:21:42.617Z,-6.23
2018-03-01T00:22:08.712Z,-6.2
2018-03-01T00:22:34.799Z,-6.18
2018-03-01T00:23:00.918Z,-6.14
2018-03-01T00:23:27.009Z,-6.31
2018-03-01T00:23:53.113Z,-6.32
2018-03-01T00:24:19.204Z,-6.31
2018-03-01T00:24:45.305Z,-6.28
2018-03-01T00:25:11.417Z,-6.26
2018-03-01T00:25:37.510Z,-6.29
2018-03-01T00:26:03.612Z,-6.31
2018-03-01T00:26:29.716Z,-6.29
2018-03-01T00:26:55.818Z,-6.32
2018-03-01T00:27:21.915Z,-6.29
2018-03-01T00:27:48.012Z,-6.31
2018-03-01T00:28:14.101Z,-6.24
2018-03-01T00:28:40.200Z,-6.28
2018-03-01T00:29:06.334Z,-6.24
2018-03-01T00:29:32.424Z,-6.28
2018-03-01T00:29:58.557Z,-6.29
2018-03-01T00:30:24.671Z,-6.32
2018-03-01T00:30:50.800Z,-6.31
2018-03-01T00:31:16.909Z,-6.32
2018-03-01T00:31:43.009Z,-6.35
2018-03-01T00:32:09.113Z,-6.23
2018-03-01T00:32:35.206Z,-6.28
2018-03-01T00:33:01.308Z,-6.34
2018-03-01T00:33:27.399Z,-6.29
2018-03-01T00:33:53.527Z,-6.26
2018-03-01T00:34:19.589Z,-6.36
2018-03-01T00:34:45.691Z,-6.32
2018-03-01T00:35:11.784Z,-6.26
2018-03-01T00:35:37.874Z,-6.32
2018-03-01T00:36:03.975Z,-6.28
2018-03-01T00:36:30.066Z,-6.34
2018-03-01T00:36:56.159Z,-6.28
2018-03-01T00:37:22.259Z,-6.23
2018-03-01T00:37:48.357Z,-6.21
2018-03-01T00:38:14.452Z,-6.32
2018-03-01T00:38:40.551Z,-6.32
2018-03-01T00:39:06.643Z,-6.26
2018-03-01T00:39:32.943Z,-6.28
2018-03-01T00:39:59.035Z,-6.31
2018-03-01T00:40:25.129Z,-6.26
2018-03-01T00:40:51.229Z,-6.34
2018-03-01T00:41:17.345Z,-6.39
2018-03-01T00:41:43.433Z,-6.34
2018-03-01T00:42:09.530Z,-6.32
2018-03-01T00:42:35.642Z,-6.35
2018-03-01T00:43:01.737Z,-6.34
2018-03-01T00:43:27.840Z,-6.31
2018-03-01T00:43:53.940Z,-6.34
2018-03-01T00:44:20.054Z,-6.28
2018-03-01T00:44:46.142Z,-6.32
2018-03-01T00:45:12.237Z,-6.28
2018-03-01T00:45:38.330Z,-6.29
2018-03-01T00:46:04.423Z,-6.26
2018-03-01T00:46:30.514Z,-6.36
2018-03-01T00:46:56.622Z,-6.34
2018-03-01T00:47:22.743Z,-6.38
2018-03-01T00:47:48.828Z,-6.44
2018-03-01T00:48:14.924Z,-6.32
2018-03-01T00:48:41.017Z,-6.38
2018-03-01T00:49:07.114Z,-6.36
2018-03-01T00:49:33.206Z,-6.34
2018-03-01T00:49:59.298Z,-6.34
2018-03-01T00:50:25.404Z,-6.36
2018-03-01T00:50:51.491Z,-6.32
2018-03-01T00:51:17.609Z,-6.36
2018-03-01T00:51:43.707Z,-6.35
2018-03-01T00:52:09.800Z,-6.31
2018-03-01T00:52:35.896Z,-6.32
2018-03-01T00:53:01.990Z,-6.39
2018-03-01T00:53:28.084Z,-6.36
2018-03-01T00:53:54.183Z,-6.36
2018-03-01T00:54:20.276Z,-6.32
2018-03-01T00:54:46.372Z,-6.35
2018-03-01T00:55:12.489Z,-6.32
2018-03-01T00:55:38.597Z,-6.29
2018-03-01T00:56:04.691Z,-6.31
2018-03-01T00:56:30.789Z,-6.32
2018-03-01T00:56:56.907Z,-6.26
2018-03-01T00:57:22.996Z,-6.23
2018-03-01T00:57:49.096Z,-6.31
2018-03-01T00:58:15.190Z,-6.28
2018-03-01T00:58:41.286Z,-6.28
2018-03-01T00:59:07.404Z,-6.26
2018-03-01T00:59:33.494Z,-6.29
2018-03-01T00:59:59.592Z,-6.29
2018-03-01T01:00:25.710Z,-6.23
2018-03-01T01:00:51.800Z,-6.21
2018-03-01T01:01:17.901Z,-6.32
2018-03-01T01:01:44.002Z,-6.24
2018-03-01T01:02:10.093Z,-6.28
2018-03-01T01:02:36.186Z,-6.2
2018-03-01T01:03:02.286Z,-6.23
2018-03-01T01:03:28.395Z,-6.28
2018-03-01T01:03:54.482Z,-6.31
2018-03-01T01:04:20.583Z,-6.24
2018-03-01T01:04:46.678Z,-6.29
2018-03-01T01:05:12.766Z,-6.31
2018-03-01T01:05:38.881Z,-6.26
2018-03-01T01:06:04.996Z,-6.28
2018-03-01T01:06:31.127Z,-6.32
2018-03-01T01:06:57.239Z,-6.24
2018-03-01T01:07:23.334Z,-6.29
2018-03-01T01:07:49.425Z,-6.23
2018-03-01T01:08:15.523Z,-6.31
2018-03-01T01:08:41.622Z,-6.29
2018-03-01T01:09:07.714Z,-6.31
2018-03-01T01:09:33.812Z,-6.29
2018-03-01T01:09:59.914Z,-6.29
2018-03-01T01:10:26.030Z,-6.26
2018-03-01T01:10:52.136Z,-6.24
2018-03-01T01:11:18.231Z,-6.29
2018-03-01T01:11:44.324Z,-6.28
2018-03-01T01:12:10.419Z,-6.24
2018-03-01T01:12:36.566Z,-6.29
2018-03-01T01:13:02.626Z,-6.29
2018-03-01T01:13:28.719Z,-6.2
2018-03-01T01:13:54.819Z,-6.15
2018-03-01T01:14:20.911Z,-6.18
2018-03-01T01:14:47.012Z,-6.23
2018-03-01T01:15:13.108Z,-6.18
2018-03-01T01:15:39.202Z,-6.2
2018-03-01T01:16:05.303Z,-6.23
2018-03-01T01:16:31.396Z,-6.29
2018-03-01T01:16:57.487Z,-6.29
2018-03-01T01:17:23.587Z,-6.26
2018-03-01T01:17:49.679Z,-6.32
2018-03-01T01:18:15.781Z,-6.31
2018-03-01T01:18:41.886Z,-6.23
2018-03-01T01:19:07.987Z,-6.26
2018-03-01T01:19:34.078Z,-6.35
2018-03-01T01:20:00.174Z,-6.29
2018-03-01T01:20:26.274Z,-6.23
2018-03-01T01:20:52.365Z,-6.18
2018-03-01T01:21:18.463Z,-6.17
2018-03-01T01:21:44.555Z,-6.31
2018-03-01T01:22:10.648Z,-6.28
2018-03-01T01:22:36.745Z,-6.31
2018-03-01T01:23:02.854Z,-6.24
2018-03-01T01:23:28.954Z,-6.17
2018-03-01T01:23:55.051Z,-6.15
2018-03-01T01:24:21.183Z,-6.23
2018-03-01T01:24:47.247Z,-6.17
2018-03-01T01:25:13.345Z,-6.21
2018-03-01T01:25:39.441Z,-6.28
2018-03-01T01:26:05.534Z,-6.21
2018-03-01T01:26:31.737Z,-6.31
2018-03-01T01:26:57.894Z,-6.21
2018-03-01T01:27:24.034Z,-6.21
2018-03-01T01:27:50.134Z,-6.15
2018-03-01T01:28:16.234Z,-6.24
2018-03-01T01:28:42.326Z,-6.17
2018-03-01T01:29:08.428Z,-6.2
2018-03-01T01:29:34.523Z,-6.23
2018-03-01T01:30:00.611Z,-6.14
2018-03-01T01:30:26.708Z,-6.26
2018-03-01T01:30:52.826Z,-6.21
2018-03-01T01:31:18.978Z,-6.24
2018-03-01T01:31:45.034Z,-6.31
2018-03-01T01:32:11.210Z,-6.23
2018-03-01T01:32:37.315Z,-6.18
2018-03-01T01:33:03.413Z,-6.28
2018-03-01T01:33:29.513Z,-6.17
2018-03-01T01:33:55.603Z,-6.18
2018-03-01T01:34:21.704Z,-6.21
2018-03-01T01:34:47.798Z,-6.21
2018-03-01T01:35:13.904Z,-6.2
2018-03-01T01:35:40.012Z,-6.13
2018-03-01T01:36:06.130Z,-6.07
2018-03-01T01:36:32.902Z,-6.14
2018-03-01T01:36:58.951Z,-6.18
2018-03-01T01:37:25.104Z,-6.2
2018-03-01T01:37:51.195Z,-6.31
2018-03-01T01:38:17.330Z,-6.21
2018-03-01T01:38:43.460Z,-6.24
2018-03-01T01:39:09.560Z,-6.23
2018-03-01T01:39:35.659Z,-6.15
2018-03-01T01:40:01.750Z,-6.17
2018-03-01T01:40:27.851Z,-6.18
2018-03-01T01:40:53.944Z,-6.17
2018-03-01T01:41:20.041Z,-6.31
2018-03-01T01:41:46.142Z,-6.29
2018-03-01T01:42:12.349Z,-6.29
2018-03-01T01:42:38.393Z,-6.23
2018-03-01T01:43:04.495Z,-6.26
2018-03-01T01:43:30.595Z,-6.29
2018-03-01T01:43:56.689Z,-6.23
2018-03-01T01:44:22.784Z,-6.2
2018-03-01T01:44:48.877Z,-6.2
2018-03-01T01:45:14.977Z,-6.21
2018-03-01T01:45:41.072Z,-6.18
2018-03-01T01:46:07.162Z,-6.18
2018-03-01T01:46:33.264Z,-6.17
2018-03-01T01:46:59.358Z,-6.13
2018-03-01T01:47:25.465Z,-6.15
2018-03-01T01:47:51.555Z,-6.15
2018-03-01T01:48:17.653Z,-6.14
2018-03-01T01:48:43.950Z,-6.15
2018-03-01T01:49:10.053Z,-6.17
2018-03-01T01:49:36.156Z,-6.15
2018-03-01T01:50:02.258Z,-6.11
2018-03-01T01:50:28.358Z,-6.2
2018-03-01T01:50:54.476Z,-6.18
2018-03-01T01:51:20.572Z,-6.17
2018-03-01T01:51:46.686Z,-6.17
2018-03-01T01:52:12.842Z,-6.21
2018-03-01T01:52:38.970Z,-6.26
2018-03-01T01:53:05.064Z,-6.24
2018-03-01T01:53:31.162Z,-6.2
2018-03-01T01:53:57.256Z,-6.21
2018-03-01T01:54:23.354Z,-6.18
2018-03-01T01:54:49.448Z,-6.18
2018-03-01T01:55:15.552Z,-6.2
2018-03-01T01:55:41.647Z,-6.21
2018-03-01T01:56:07.745Z,-6.26
2018-03-01T01:56:33.832Z,-6.31
2018-03-01T01:56:59.948Z,-6.26
2018-03-01T01:57:26.053Z,-6.23
2018-03-01T01:57:52.150Z,-6.29
2018-03-01T01:58:18.247Z,-6.24
2018-03-01T01:58:44.346Z,-6.31
2018-03-01T01:59:10.443Z,-6.29
2018-03-01T01:59:36.554Z,-6.32
2018-03-01T02:00:02.652Z,-6.35
2018-03-01T02:00:28.753Z,-6.34
2018-03-01T02:00:54.858Z,-6.28
2018-03-01T02:01:20.954Z,-6.28
2018-03-01T02:01:47.057Z,-6.23
2018-03-01T02:02:13.143Z,-6.21
2018-03-01T02:02:39.245Z,-6.26
2018-03-01T02:03:05.346Z,-6.28
2018-03-01T02:03:31.445Z,-6.21
2018-03-01T02:03:57.542Z,-6.29
2018-03-01T02:04:23.657Z,-6.26
2018-03-01T02:04:49.748Z,-6.21
2018-03-01T02:05:15.845Z,-6.21
2018-03-01T02:05:41.938Z,-6.15
2018-03-01T02:06:08.038Z,-6.15
2018-03-01T02:06:34.131Z,-6.29
2018-03-01T02:07:00.230Z,-6.23
2018-03-01T02:07:26.320Z,-6.26
2018-03-01T02:07:52.419Z,-6.26
2018-03-01T02:08:18.518Z,-6.28
2018-03-01T02:08:44.614Z,-6.28
2018-03-01T02:09:10.708Z,-6.31
2018-03-01T02:09:36.806Z,-6.31
2018-03-01T02:10:02.899Z,-6.29
2018-03-01T02:10:29.000Z,-6.32
2018-03-01T02:10:55.099Z,-6.23
2018-03-01T02:11:21.192Z,-6.29
2018-03-01T02:11:47.287Z,-6.29
2018-03-01T02:12:13.439Z,-6.28
2018-03-01T02:12:39.491Z,-6.28
2018-03-01T02:13:05.584Z,-6.23
2018-03-01T02:13:31.686Z,-6.29
2018-03-01T02:13:57.782Z,-6.15
2018-03-01T02:14:23.875Z,-6.2
2018-03-01T02:14:49.976Z,-6.2
2018-03-01T02:15:16.088Z,-6.29
2018-03-01T02:15:42.189Z,-6.28
2018-03-01T02:16:08.280Z,-6.28
2018-03-01T02:16:34.383Z,-6.31
2018-03-01T02:17:00.476Z,-6.42
2018-03-01T02:17:26.575Z,-6.36
2018-03-01T02:17:52.674Z,-6.49
2018-03-01T02:18:18.766Z,-6.35
2018-03-01T02:18:44.866Z,-6.35
2018-03-01T02:19:10.964Z,-6.24
2018-03-01T02:19:37.060Z,-6.28
2018-03-01T02:20:03.158Z,-6.31
2018-03-01T02:20:29.253Z,-6.31
2018-03-01T02:20:55.354Z,-6.28
2018-03-01T02:21:21.458Z,-6.26
2018-03-01T02:21:47.554Z,-6.24
2018-03-01T02:22:13.657Z,-6.28
2018-03-01T02:22:39.772Z,-6.24
2018-03-01T02:23:05.869Z,-6.24
2018-03-01T02:23:31.963Z,-6.23
2018-03-01T02:23:58.060Z,-6.26
2018-03-01T02:24:24.156Z,-6.28
2018-03-01T02:24:50.252Z,-6.28
2018-03-01T02:25:16.359Z,-6.23
2018-03-01T02:25:42.449Z,-6.31
2018-03-01T02:26:08.551Z,-6.34
2018-03-01T02:26:34.638Z,-6.29
2018-03-01T02:27:00.739Z,-6.28
2018-03-01T02:27:26.828Z,-6.29
2018-03-01T02:27:52.929Z,-6.26
2018-03-01T02:28:19.029Z,-6.28
2018-03-01T02:28:45.126Z,-6.31
2018-03-01T02:29:11.227Z,-6.23
2018-03-01T02:29:37.324Z,-6.24
2018-03-01T02:30:03.437Z,-6.26
2018-03-01T02:30:29.524Z,-6.18
2018-03-01T02:30:55.618Z,-6.29
2018-03-01T02:31:21.719Z,-6.26
2018-03-01T02:31:47.835Z,-6.26
2018-03-01T02:32:13.943Z,-6.28
2018-03-01T02:32:40.043Z,-6.34
2018-03-01T02:33:06.139Z,-6.31
2018-03-01T02:33:32.229Z,-6.34
2018-03-01T02:33:58.329Z,-6.39
2018-03-01T02:34:24.420Z,-6.44
2018-03-01T02:34:50.520Z,-6.36
2018-03-01T02:35:16.619Z,-6.36
2018-03-01T02:35:42.750Z,-6.29
2018-03-01T02:36:08.906Z,-6.26
2018-03-01T02:36:34.950Z,-6.29
2018-03-01T02:37:01.039Z,-6.32
2018-03-01T02:37:27.148Z,-6.28
2018-03-01T02:37:53.248Z,-6.29
2018-03-01T02:38:19.341Z,-6.36
2018-03-01T02:38:45.441Z,-6.34
2018-03-01T02:39:11.553Z,-6.35
2018-03-01T02:39:37.663Z,-6.42
2018-03-01T02:40:03.764Z,-6.41
2018-03-01T02:40:29.868Z,-6.31
2018-03-01T02:40:55.982Z,-6.34
2018-03-01T02:41:22.067Z,-6.34
2018-03-01T02:41:48.168Z,-6.29
2018-03-01T02:42:14.267Z,-6.24
2018-03-01T02:42:40.370Z,-6.29
2018-03-01T02:43:06.479Z,-6.24
2018-03-01T02:43:32.584Z,-6.31
2018-03-01T02:43:58.680Z,-6.26
2018-03-01T02:44:24.771Z,-6.32
2018-03-01T02:44:50.885Z,-6.23
2018-03-01T02:45:16.989Z,-6.38
2018-03-01T02:45:43.102Z,-6.32
2018-03-01T02:46:09.211Z,-6.34
2018-03-01T02:46:35.303Z,-6.38
2018-03-01T02:47:01.401Z,-6.34
2018-03-01T02:47:27.496Z,-6.35
2018-03-01T02:47:53.588Z,-6.39
2018-03-01T02:48:19.689Z,-6.38
2018-03-01T02:48:45.788Z,-6.41
2018-03-01T02:49:11.881Z,-6.49
2018-03-01T02:49:37.990Z,-6.36
2018-03-01T02:50:04.083Z,-6.34
2018-03-01T02:50:30.177Z,-6.38
2018-03-01T02:50:56.267Z,-6.39
2018-03-01T02:51:22.371Z,-6.44
2018-03-01T02:51:48.468Z,-6.38
2018-03-01T02:52:14.574Z,-6.41
2018-03-01T02:52:40.670Z,-6.38
2018-03-01T02:53:06.766Z,-6.39
2018-03-01T02:53:32.854Z,-6.49
2018-03-01T02:53:58.957Z,-6.44
2018-03-01T02:54:25.054Z,-6.5
2018-03-01T02:54:51.147Z,-6.5
2018-03-01T02:55:17.275Z,-6.47
2018-03-01T02:55:43.376Z,-6.44
2018-03-01T02:56:09.474Z,-6.47
2018-03-01T02:56:35.568Z,-6.38
2018-03-01T02:57:01.662Z,-6.39
2018-03-01T02:57:27.758Z,-6.38
2018-03-01T02:57:53.859Z,-6.35
2018-03-01T02:58:19.970Z,-6.42
2018-03-01T02:58:46.064Z,-6.35
2018-03-01T02:59:12.166Z,-6.38
2018-03-01T02:59:38.258Z,-6.34
2018-03-01T03:00:04.358Z,-6.34
2018-03-01T03:00:30.453Z,-6.32
2018-03-01T03:00:56.550Z,-6.42
2018-03-01T03:01:22.648Z,-6.49
2018-03-01T03:01:48.762Z,-6.44
2018-03-01T03:02:14.854Z,-6.47
2018-03-01T03:02:40.957Z,-6.5
2018-03-01T03:03:07.048Z,-6.46
2018-03-01T03:03:33.146Z,-6.44
2018-03-01T03:03:59.248Z,-6.53
2018-03-01T03:04:25.349Z,-6.46
2018-03-01T03:04:51.444Z,-6.44
2018-03-01T03:05:17.535Z,-6.58
2018-03-01T03:05:43.638Z,-6.46
2018-03-01T03:06:09.729Z,-6.46
2018-03-01T03:06:35.820Z,-6.46
2018-03-01T03:07:01.916Z,-6.42
2018-03-01T03:07:28.013Z,-6.42
2018-03-01T03:07:54.129Z,-6.38
2018-03-01T03:08:20.224Z,-6.42
2018-03-01T03:08:46.330Z,-6.39
2018-03-01T03:09:12.439Z,-6.38
2018-03-01T03:09:38.539Z,-6.38
2018-03-01T03:10:04.642Z,-6.49
2018-03-01T03:10:30.741Z,-6.47
2018-03-01T03:10:56.837Z,-6.44
2018-03-01T03:11:22.929Z,-6.52
2018-03-01T03:11:49.021Z,-6.47
2018-03-01T03:12:15.117Z,-6.47
2018-03-01T03:12:41.228Z,-6.46
2018-03-01T03:13:07.321Z,-6.42
2018-03-01T03:13:33.423Z,-6.5
2018-03-01T03:13:59.535Z,-6.53
2018-03-01T03:14:25.630Z,-6.47
2018-03-01T03:14:51.726Z,-6.41
2018-03-01T03:15:17.829Z,-6.47
2018-03-01T03:15:43.921Z,-6.47
2018-03-01T03:16:10.016Z,-6.49
2018-03-01T03:16:36.116Z,-6.56
2018-03-01T03:17:02.210Z,-6.5
2018-03-01T03:17:28.308Z,-6.47
2018-03-01T03:17:54.426Z,-6.47
2018-03-01T03:18:20.520Z,-6.46
2018-03-01T03:18:46.613Z,-6.47
2018-03-01T03:19:12.714Z,-6.38
2018-03-01T03:19:38.810Z,-6.46
2018-03-01T03:20:04.938Z,-6.42
2018-03-01T03:20:31.020Z,-6.44
2018-03-01T03:20:57.113Z,-6.53
2018-03-01T03:21:23.208Z,-6.58
2018-03-01T03:21:49.306Z,-6.53
2018-03-01T03:22:15.407Z,-6.44
2018-03-01T03:22:41.498Z,-6.53
2018-03-01T03:23:07.597Z,-6.5
2018-03-01T03:23:33.691Z,-6.41
2018-03-01T03:23:59.788Z,-6.39
2018-03-01T03:24:25.889Z,-6.5
2018-03-01T03:24:51.996Z,-6.49
2018-03-01T03:25:18.107Z,-6.5
2018-03-01T03:25:44.223Z,-6.42
2018-03-01T03:26:10.315Z,-6.42
2018-03-01T03:26:36.418Z,-6.53
2018-03-01T03:27:02.511Z,-6.54
2018-03-01T03:27:28.614Z,-6.6
2018-03-01T03:27:54.709Z,-6.65
2018-03-01T03:28:20.801Z,-6.39
2018-03-01T03:28:46.927Z,-6.56
2018-03-01T03:29:13.025Z,-6.58
2018-03-01T03:29:39.117Z,-6.6
2018-03-01T03:30:05.213Z,-6.53
2018-03-01T03:30:31.305Z,-6.5
2018-03-01T03:30:57.403Z,-6.38
2018-03-01T03:31:23.510Z,-6.53
2018-03-01T03:31:49.600Z,-6.61
2018-03-01T03:32:15.692Z,-6.5
2018-03-01T03:32:41.790Z,-6.5
2018-03-01T03:33:07.898Z,-6.52
2018-03-01T03:33:33.995Z,-6.5
2018-03-01T03:34:00.113Z,-6.47
2018-03-01T03:34:26.207Z,-6.53
2018-03-01T03:34:52.304Z,-6.44
2018-03-01T03:35:18.404Z,-6.36
2018-03-01T03:35:44.518Z,-6.54
2018-03-01T03:36:10.615Z,-6.39
2018-03-01T03:36:36.718Z,-6.36
2018-03-01T03:37:02.812Z,-6.42
2018-03-01T03:37:28.907Z,-6.36
2018-03-01T03:37:55.025Z,-6.34
2018-03-01T03:38:21.117Z,-6.49
2018-03-01T03:38:47.212Z,-6.36
2018-03-01T03:39:13.327Z,-6.38
2018-03-01T03:39:39.418Z,-6.52
2018-03-01T03:40:05.529Z,-6.35
2018-03-01T03:40:31.637Z,-6.36
2018-03-01T03:40:57.751Z,-6.38
2018-03-01T03:41:23.853Z,-6.34
2018-03-01T03:41:49.948Z,-6.36
2018-03-01T03:42:16.041Z,-6.35
2018-03-01T03:42:42.142Z,-6.32
2018-03-01T03:43:08.239Z,-6.35
2018-03-01T03:43:34.334Z,-6.36
2018-03-01T03:44:00.447Z,-6.36
2018-03-01T03:44:26.542Z,-6.26
2018-03-01T03:44:52.637Z,-6.34
2018-03-01T03:45:18.735Z,-6.36
2018-03-01T03:45:44.843Z,-6.34
2018-03-01T03:46:10.940Z,-6.38
2018-03-01T03:46:37.051Z,-6.54
2018-03-01T03:47:03.152Z,-6.42
2018-03-01T03:47:29.246Z,-6.52
2018-03-01T03:47:55.345Z,-6.53
2018-03-01T03:48:21.465Z,-6.49
2018-03-01T03:48:47.570Z,-6.63
2018-03-01T03:49:13.676Z,-6.47
2018-03-01T03:49:39.767Z,-6.53
2018-03-01T03:50:05.867Z,-6.42
2018-03-01T03:50:31.981Z,-6.52
2018-03-01T03:50:58.071Z,-6.46
2018-03-01T03:51:24.165Z,-6.46
2018-03-01T03:51:50.263Z,-6.36
2018-03-01T03:52:16.356Z,-6.53
2018-03-01T03:52:42.449Z,-6.41
2018-03-01T03:53:08.551Z,-6.49
2018-03-01T03:53:34.641Z,-6.46
2018-03-01T03:54:00.742Z,-6.44
2018-03-01T03:54:26.840Z,-6.44
2018-03-01T03:54:52.929Z,-6.44
2018-03-01T03:55:19.020Z,-6.47
2018-03-01T03:55:45.120Z,-6.49
2018-03-01T03:56:11.218Z,-6.52
2018-03-01T03:56:37.310Z,-6.41
2018-03-01T03:57:03.407Z,-6.49
2018-03-01T03:57:29.507Z,-6.42
2018-03-01T03:57:55.599Z,-6.5
2018-03-01T03:58:21.700Z,-6.41
2018-03-01T03:58:47.813Z,-6.39
2018-03-01T03:59:13.912Z,-6.41
2018-03-01T03:59:40.012Z,-6.41
2018-03-01T04:00:06.120Z,-6.42
2018-03-01T04:00:32.207Z,-6.36
2018-03-01T04:00:58.306Z,-6.39
2018-03-01T04:01:24.399Z,-6.34
2018-03-01T04:01:50.493Z,-6.32
2018-03-01T04:02:16.592Z,-6.28
2018-03-01T04:02:42.717Z,-6.36
2018-03-01T04:03:08.814Z,-6.42
2018-03-01T04:03:34.929Z,-6.42
2018-03-01T04:04:01.008Z,-6.53
2018-03-01T04:04:27.106Z,-6.49
2018-03-01T04:04:53.199Z,-6.58
2018-03-01T04:05:19.311Z,-6.49
2018-03-01T04:05:45.424Z,-6.56
2018-03-01T04:06:11.519Z,-6.47
2018-03-01T04:06:37.623Z,-6.47
2018-03-01T04:07:03.719Z,-6.47
2018-03-01T04:07:29.818Z,-6.41
2018-03-01T04:07:55.908Z,-6.53
2018-03-01T04:08:22.003Z,-6.47
2018-03-01T04:08:48.106Z,-6.5
2018-03-01T04:09:14.201Z,-6.47
2018-03-01T04:09:40.293Z,-6.44
2018-03-01T04:10:06.405Z,-6.35
2018-03-01T04:10:32.507Z,-6.35
2018-03-01T04:10:58.603Z,-6.34
2018-03-01T04:11:24.697Z,-6.26
2018-03-01T04:11:50.793Z,-6.36
2018-03-01T04:12:16.886Z,-6.31
2018-03-01T04:12:42.992Z,-6.23
2018-03-01T04:13:09.091Z,-6.23
2018-03-01T04:13:35.182Z,-6.21
2018-03-01T04:14:01.299Z,-6.21
2018-03-01T04:14:27.391Z,-6.26
2018-03-01T04:14:53.484Z,-6.21
2018-03-01T04:15:19.580Z,-6.29
2018-03-01T04:15:45.677Z,-6.32
2018-03-01T04:16:11.775Z,-6.26
2018-03-01T04:16:37.867Z,-6.31
2018-03-01T04:17:03.986Z,-6.31
2018-03-01T04:17:30.084Z,-6.29
2018-03-01T04:17:56.181Z,-6.23
2018-03-01T04:18:22.274Z,-6.26
2018-03-01T04:18:48.368Z,-6.28
2018-03-01T04:19:14.484Z,-6.18
2018-03-01T04:19:40.582Z,-6.23
2018-03-01T04:20:06.705Z,-6.31
2018-03-01T04:20:32.799Z,-6.28
2018-03-01T04:20:58.891Z,-6.29
2018-03-01T04:21:24.982Z,-6.24
2018-03-01T04:21:51.096Z,-6.28
2018-03-01T04:22:17.189Z,-6.31
2018-03-01T04:22:43.291Z,-6.26
2018-03-01T04:23:09.388Z,-6.23
2018-03-01T04:23:35.485Z,-6.28
2018-03-01T04:24:01.577Z,-6.28
2018-03-01T04:24:27.681Z,-6.31
2018-03-01T04:24:53.796Z,-6.28
2018-03-01T04:25:19.889Z,-6.31
2018-03-01T04:25:45.990Z,-6.29
2018-03-01T04:26:12.082Z,-6.32
2018-03-01T04:26:38.188Z,-6.31
2018-03-01T04:27:04.279Z,-6.24
2018-03-01T04:27:30.375Z,-6.26
2018-03-01T04:27:56.474Z,-6.2
2018-03-01T04:28:22.572Z,-6.15
2018-03-01T04:28:48.669Z,-6.18
2018-03-01T04:29:14.759Z,-6.18
2018-03-01T04:29:40.862Z,-6.31
2018-03-01T04:30:06.954Z,-6.26
2018-03-01T04:30:33.055Z,-6.24
2018-03-01T04:30:59.143Z,-6.28
2018-03-01T04:31:25.242Z,-6.29
2018-03-01T04:31:51.341Z,-6.18
2018-03-01T04:32:17.447Z,-6.21
2018-03-01T04:32:43.540Z,-6.29
2018-03-01T04:33:09.641Z,-6.18
2018-03-01T04:33:35.742Z,-6.18
2018-03-01T04:34:01.839Z,-6.2
2018-03-01T04:34:27.941Z,-6.29
2018-03-01T04:34:54.038Z,-6.31
2018-03-01T04:35:20.141Z,-6.26
2018-03-01T04:35:46.242Z,-6.26
2018-03-01T04:36:12.341Z,-6.28
2018-03-01T04:36:38.439Z,-6.23
2018-03-01T04:37:04.530Z,-6.29
2018-03-01T04:37:30.633Z,-6.29
2018-03-01T04:37:56.731Z,-6.23
2018-03-01T04:38:22.824Z,-6.29
2018-03-01T04:38:48.920Z,-6.28
2018-03-01T04:39:15.031Z,-6.26
2018-03-01T04:39:41.127Z,-6.26
2018-03-01T04:40:07.238Z,-6.28
2018-03-01T04:40:33.357Z,-6.31
2018-03-01T04:40:59.451Z,-6.32
2018-03-01T04:41:25.569Z,-6.31
2018-03-01T04:41:51.660Z,-6.31
2018-03-01T04:42:17.752Z,-6.34
2018-03-01T04:42:43.854Z,-6.31
2018-03-01T04:43:09.950Z,-6.26
2018-03-01T04:43:36.052Z,-6.23
2018-03-01T04:44:02.144Z,-6.23
2018-03-01T04:44:28.245Z,-6.28
2018-03-01T04:44:54.337Z,-6.2
2018-03-01T04:45:20.454Z,-6.21
2018-03-01T04:45:46.579Z,-6.17
2018-03-01T04:46:12.671Z,-6.21
2018-03-01T04:46:38.766Z,-6.23
2018-03-01T04:47:04.869Z,-6.23
2018-03-01T04:47:30.958Z,-6.2
2018-03-01T04:47:57.057Z,-6.21
2018-03-01T04:48:23.152Z,-6.18
2018-03-01T04:48:49.252Z,-6.2
2018-03-01T04:49:15.354Z,-6.15
2018-03-01T04:49:41.443Z,-6.26
2018-03-01T04:50:07.542Z,-6.17
2018-03-01T04:50:33.636Z,-6.21
2018-03-01T04:50:59.736Z,-6.2
2018-03-01T04:51:25.831Z,-6.18
2018-03-01T04:51:51.927Z,-6.21
2018-03-01T04:52:18.045Z,-6.29
2018-03-01T04:52:44.148Z,-6.21
2018-03-01T04:53:10.235Z,-6.18
2018-03-01T04:53:36.331Z,-6.21
2018-03-01T04:54:02.429Z,-6.17
2018-03-01T04:54:28.542Z,-6.21
2018-03-01T04:54:54.645Z,-6.17
2018-03-01T04:55:20.731Z,-6.21
2018-03-01T04:55:46.831Z,-6.11
2018-03-01T04:56:12.939Z,-6.17
2018-03-01T04:56:39.059Z,-6.14
2018-03-01T04:57:05.152Z,-6.2
2018-03-01T04:57:31.258Z,-6.21
2018-03-01T04:57:57.366Z,-6.17
2018-03-01T04:58:23.464Z,-6.18
2018-03-01T04:58:49.560Z,-6.28
2018-03-01T04:59:15.661Z,-6.24
2018-03-01T04:59:41.755Z,-6.15
2018-03-01T05:00:07.857Z,-6.21
2018-03-01T05:00:33.955Z,-6.21
2018-03-01T05:01:00.049Z,-6.15
2018-03-01T05:01:26.147Z,-6.21
2018-03-01T05:01:52.242Z,-6.14
2018-03-01T05:02:18.333Z,-6.18
2018-03-01T05:02:44.436Z,-6.14
2018-03-01T05:03:10.536Z,-6.17
2018-03-01T05:03:36.645Z,-6.14
2018-03-01T05:04:02.740Z,-6.17
2018-03-01T05:04:28.851Z,-6.21
2018-03-01T05:04:54.946Z,-6.18
2018-03-01T05:05:21.070Z,-6.24
2018-03-01T05:05:47.163Z,-6.28
2018-03-01T05:06:13.255Z,-6.31
2018-03-01T05:06:39.352Z,-6.24
2018-03-01T05:07:05.453Z,-6.28
2018-03-01T05:07:31.551Z,-6.34
2018-03-01T05:07:57.650Z,-6.29
2018-03-01T05:08:23.750Z,-6.34
2018-03-01T05:08:49.842Z,-6.26
2018-03-01T05:09:15.936Z,-6.28
2018-03-01T05:09:42.035Z,-6.31
2018-03-01T05:10:08.130Z,-6.29
2018-03-01T05:10:34.241Z,-6.26
2018-03-01T05:11:00.374Z,-6.29
2018-03-01T05:11:26.438Z,-6.29
2018-03-01T05:11:52.550Z,-6.15
2018-03-01T05:12:18.649Z,-6.18
2018-03-01T05:12:44.741Z,-6.24
2018-03-01T05:13:10.836Z,-6.2
2018-03-01T05:13:36.935Z,-6.18
2018-03-01T05:14:03.029Z,-6.2
2018-03-01T05:14:29.121Z,-6.24
2018-03-01T05:14:55.224Z,-6.21
2018-03-01T05:15:21.323Z,-6.28
2018-03-01T05:15:47.418Z,-6.24
2018-03-01T05:16:13.533Z,-6.26
2018-03-01T05:16:39.607Z,-6.23
2018-03-01T05:17:05.705Z,-6.28
2018-03-01T05:17:31.823Z,-6.34
2018-03-01T05:17:57.918Z,-6.29
2018-03-01T05:18:24.015Z,-6.28
2018-03-01T05:18:50.109Z,-6.29
2018-03-01T05:19:16.215Z,-6.32
2018-03-01T05:19:42.305Z,-6.29
2018-03-01T05:20:08.395Z,-6.26
2018-03-01T05:20:34.497Z,-6.29
2018-03-01T05:21:00.587Z,-6.26
2018-03-01T05:21:26.685Z,-6.23
2018-03-01T05:21:52.800Z,-6.29
2018-03-01T05:22:18.894Z,-6.26
2018-03-01T05:22:44.995Z,-6.18
2018-03-01T05:23:11.112Z,-6.18
2018-03-01T05:23:37.208Z,-6.21
2018-03-01T05:24:03.325Z,-6.34
2018-03-01T05:24:29.419Z,-6.24
2018-03-01T05:24:55.520Z,-6.21
2018-03-01T05:25:21.619Z,-6.28
2018-03-01T05:25:47.726Z,-6.15
2018-03-01T05:26:13.827Z,-6.15
2018-03-01T05:26:39.942Z,-6.28
2018-03-01T05:27:06.034Z,-6.14
2018-03-01T05:27:32.130Z,-6.18
2018-03-01T05:27:58.229Z,-6.18
2018-03-01T05:28:24.320Z,-6.21
2018-03-01T05:28:50.419Z,-6.24
2018-03-01T05:29:16.519Z,-6.28
2018-03-01T05:29:42.613Z,-6.31
2018-03-01T05:30:08.712Z,-6.2
2018-03-01T05:30:34.806Z,-6.21
2018-03-01T05:31:00.903Z,-6.23
2018-03-01T05:31:27.010Z,-6.24
2018-03-01T05:31:53.116Z,-6.26
2018-03-01T05:32:19.219Z,-6.24
2018-03-01T05:32:45.308Z,-6.32
2018-03-01T05:33:11.402Z,-6.26
2018-03-01T05:33:37.521Z,-6.21
2018-03-01T05:34:03.625Z,-6.26
2018-03-01T05:34:29.727Z,-6.28
2018-03-01T05:34:55.818Z,-6.29
2018-03-01T05:35:21.919Z,-6.29
2018-03-01T05:35:48.014Z,-6.24
2018-03-01T05:36:14.111Z,-6.26
2018-03-01T05:36:40.224Z,-6.31
2018-03-01T05:37:06.321Z,-6.34